createdAt,value
2016-08-20T04:01:50.827Z,1010.34
2016-08-20T04:02:16.456Z,1010.33
2016-08-20T04:02:42.019Z,1010.39
2016-08-20T04:03:07.588Z,1010.4
2016-08-20T04:03:33.139Z,1010.4
2016-08-20T04:03:58.722Z,1010.41
2016-08-20T04:04:24.306Z,1010.41
2016-08-20T04:04:50.016Z,1010.38
2016-08-20T04:05:15.629Z,1010.42
2016-08-20T04:05:41.203Z,1010.41
2016-08-20T04:06:06.826Z,1010.43
2016-08-20T04:06:32.395Z,1010.41
2016-08-20T04:06:57.939Z,1010.39
2016-08-20T04:07:23.515Z,1010.43
2016-08-20T04:07:49.110Z,1010.4
2016-08-20T04:08:14.676Z,1010.4
2016-08-20T04:08:40.240Z,1010.41
2016-08-20T04:09:05.797Z,1010.43
2016-08-20T04:09:31.341Z,1010.41
2016-08-20T04:09:56.891Z,1010.41
2016-08-20T04:10:22.456Z,1010.39
2016-08-20T04:10:48.024Z,1010.4
2016-08-20T04:11:13.642Z,1010.38
2016-08-20T04:11:39.216Z,1010.41
2016-08-20T04:12:04.783Z,1010.4
2016-08-20T04:12:30.376Z,1010.4
2016-08-20T04:12:55.939Z,1010.42
2016-08-20T04:13:21.542Z,1010.43
2016-08-20T04:13:47.174Z,1010.43
2016-08-20T04:14:12.731Z,1010.43
2016-08-20T04:14:38.294Z,1010.43
2016-08-20T04:15:03.856Z,1010.42
2016-08-20T04:15:29.428Z,1010.39
2016-08-20T04:15:55.006Z,1010.43
2016-08-20T04:16:20.570Z,1010.41
2016-08-20T04:16:46.124Z,1010.4
2016-08-20T04:17:11.707Z,1010.42
2016-08-20T04:17:37.265Z,1010.37
2016-08-20T04:18:02.833Z,1010.39
2016-08-20T04:18:28.507Z,1010.35
2016-08-20T04:18:54.098Z,1010.34
2016-08-20T04:19:19.768Z,1010.36
2016-08-20T04:19:45.332Z,1010.36
2016-08-20T04:20:11.108Z,1010.36
2016-08-20T04:20:36.652Z,1010.36
2016-08-20T04:21:02.218Z,1010.36
2016-08-20T04:21:27.785Z,1010.33
2016-08-20T04:21:53.358Z,1010.35
2016-08-20T04:22:18.938Z,1010.39
2016-08-20T04:22:44.481Z,1010.36
2016-08-20T04:23:10.032Z,1010.33
2016-08-20T04:23:35.643Z,1010.38
2016-08-20T04:24:01.214Z,1010.35
2016-08-20T04:24:26.914Z,1010.35
2016-08-20T04:24:52.484Z,1010.35
2016-08-20T04:25:18.104Z,1010.33
2016-08-20T04:25:43.674Z,1010.36
2016-08-20T04:26:09.340Z,1010.35
2016-08-20T04:26:34.910Z,1010.41
2016-08-20T04:27:00.457Z,1010.33
2016-08-20T04:27:26.019Z,1010.36
2016-08-20T04:27:51.594Z,1010.35
2016-08-20T04:28:17.178Z,1010.38
2016-08-20T04:28:42.757Z,1010.36
2016-08-20T04:29:08.326Z,1010.4
2016-08-20T04:29:33.958Z,1010.34
2016-08-20T04:29:59.518Z,1010.38
2016-08-20T04:30:25.065Z,1010.4
2016-08-20T04:30:50.636Z,1010.35
2016-08-20T04:31:16.199Z,1010.34
2016-08-20T04:31:41.771Z,1010.41
2016-08-20T04:32:07.358Z,1010.34
2016-08-20T04:32:32.920Z,1010.37
2016-08-20T04:32:58.515Z,1010.37
2016-08-20T04:33:24.089Z,1010.37
2016-08-20T04:33:49.669Z,1010.38
2016-08-20T04:34:15.236Z,1010.34
2016-08-20T04:35:18.490Z,1010.37
2016-08-20T04:35:44.072Z,1010.3
2016-08-20T04:36:09.759Z,1010.34
2016-08-20T04:36:35.218Z,1010.36
2016-08-20T04:37:00.774Z,1010.32
2016-08-20T04:37:26.327Z,1010.34
2016-08-20T04:37:51.895Z,1010.34
2016-08-20T04:38:17.444Z,1010.36
2016-08-20T04:38:43.066Z,1010.34
2016-08-20T04:39:08.666Z,1010.36
2016-08-20T04:39:34.222Z,1010.37
2016-08-20T04:39:59.765Z,1010.37
2016-08-20T04:40:25.379Z,1010.37
2016-08-20T04:40:50.928Z,1010.4
2016-08-20T04:41:16.531Z,1010.41
2016-08-20T04:41:42.077Z,1010.43
2016-08-20T04:42:07.640Z,1010.37
2016-08-20T04:42:33.254Z,1010.4
2016-08-20T04:42:58.811Z,1010.41
2016-08-20T04:43:24.368Z,1010.39
2016-08-20T04:43:49.936Z,1010.36
2016-08-20T04:44:15.517Z,1010.4
2016-08-20T04:44:41.162Z,1010.39
2016-08-20T04:45:06.729Z,1010.4
2016-08-20T04:45:32.356Z,1010.4
2016-08-20T04:45:57.956Z,1010.42
2016-08-20T04:46:23.603Z,1010.4
2016-08-20T04:46:49.247Z,1010.41
2016-08-20T04:47:14.829Z,1010.38
2016-08-20T04:47:40.442Z,1010.4
2016-08-20T04:48:06.044Z,1010.4
2016-08-20T04:48:31.591Z,1010.36
2016-08-20T04:48:57.159Z,1010.36
2016-08-20T04:49:22.775Z,1010.4
2016-08-20T04:49:48.349Z,1010.42
2016-08-20T04:50:14.011Z,1010.4
2016-08-20T04:50:39.555Z,1010.37
2016-08-20T04:51:05.198Z,1010.4
2016-08-20T04:51:30.755Z,1010.4
2016-08-20T04:51:56.428Z,1010.41
2016-08-20T04:52:22.001Z,1010.38
2016-08-20T04:52:47.582Z,1010.37
2016-08-20T04:53:13.148Z,1010.41
2016-08-20T04:53:38.722Z,1010.41
2016-08-20T04:54:04.296Z,1010.38
2016-08-20T04:54:29.870Z,1010.4
2016-08-20T04:54:55.445Z,1010.44
2016-08-20T04:55:21.004Z,1010.42
2016-08-20T04:55:46.582Z,1010.39
2016-08-20T04:56:12.161Z,1010.37
2016-08-20T04:56:37.710Z,1010.36
2016-08-20T04:57:03.392Z,1010.4
2016-08-20T04:57:28.956Z,1010.36
2016-08-20T04:57:54.623Z,1010.4
2016-08-20T04:58:20.178Z,1010.38
2016-08-20T04:58:45.725Z,1010.37
2016-08-20T04:59:11.292Z,1010.36
2016-08-20T04:59:36.860Z,1010.35
2016-08-20T05:00:02.455Z,1010.36
2016-08-20T05:00:27.999Z,1010.34
2016-08-20T05:00:53.565Z,1010.34
2016-08-20T05:01:19.157Z,1010.38
2016-08-20T05:01:44.722Z,1010.41
2016-08-20T05:02:10.365Z,1010.39
2016-08-20T05:02:35.945Z,1010.44
2016-08-20T05:03:01.526Z,1010.4
2016-08-20T05:03:27.086Z,1010.4
2016-08-20T05:03:52.667Z,1010.42
2016-08-20T05:04:18.235Z,1010.44
2016-08-20T05:04:43.806Z,1010.42
2016-08-20T05:05:09.382Z,1010.41
2016-08-20T05:05:34.956Z,1010.41
2016-08-20T05:06:00.528Z,1010.42
2016-08-20T05:06:26.080Z,1010.47
2016-08-20T05:06:51.645Z,1010.43
2016-08-20T05:07:17.200Z,1010.47
2016-08-20T05:07:42.754Z,1010.44
2016-08-20T05:08:08.302Z,1010.44
2016-08-20T05:08:33.858Z,1010.44
2016-08-20T05:08:59.450Z,1010.42
2016-08-20T05:09:25.032Z,1010.44
2016-08-20T05:09:50.595Z,1010.47
2016-08-20T05:10:16.225Z,1010.45
2016-08-20T05:10:41.803Z,1010.45
2016-08-20T05:11:07.432Z,1010.46
2016-08-20T05:11:32.995Z,1010.46
2016-08-20T05:11:58.550Z,1010.43
2016-08-20T05:12:24.114Z,1010.46
2016-08-20T05:12:49.755Z,1010.44
2016-08-20T05:13:15.303Z,1010.47
2016-08-20T05:13:40.877Z,1010.47
2016-08-20T05:14:06.435Z,1010.45
2016-08-20T05:14:31.975Z,1010.48
2016-08-20T05:14:57.562Z,1010.47
2016-08-20T05:15:23.112Z,1010.42
2016-08-20T05:15:48.671Z,1010.47
2016-08-20T05:16:14.233Z,1010.42
2016-08-20T05:16:39.788Z,1010.43
2016-08-20T05:17:05.352Z,1010.43
2016-08-20T05:17:30.909Z,1010.46
2016-08-20T05:17:56.473Z,1010.44
2016-08-20T05:18:22.042Z,1010.44
2016-08-20T05:18:47.634Z,1010.43
2016-08-20T05:19:13.217Z,1010.45
2016-08-20T05:19:38.794Z,1010.39
2016-08-20T05:20:04.353Z,1010.39
2016-08-20T05:21:12.845Z,1010.42
2016-08-20T05:22:21.104Z,1010.4
2016-08-20T05:22:46.710Z,1010.41
2016-08-20T05:23:12.267Z,1010.43
2016-08-20T05:23:37.824Z,1010.44
2016-08-20T05:24:03.412Z,1010.39
2016-08-20T05:24:28.963Z,1010.45
2016-08-20T05:24:54.614Z,1010.42
2016-08-20T05:25:20.246Z,1010.43
2016-08-20T05:25:45.861Z,1010.41
2016-08-20T05:26:11.614Z,1010.43
2016-08-20T05:26:37.209Z,1010.42
2016-08-20T05:27:02.781Z,1010.43
2016-08-20T05:27:28.354Z,1010.45
2016-08-20T05:27:53.916Z,1010.45
2016-08-20T05:28:19.485Z,1010.46
2016-08-20T05:28:45.280Z,1010.48
2016-08-20T05:29:10.879Z,1010.45
2016-08-20T05:29:36.460Z,1010.48
2016-08-20T05:30:02.143Z,1010.5
2016-08-20T05:30:27.708Z,1010.49
2016-08-20T05:30:53.265Z,1010.49
2016-08-20T05:31:18.911Z,1010.48
2016-08-20T05:31:44.504Z,1010.44
2016-08-20T05:32:10.097Z,1010.45
2016-08-20T05:32:35.662Z,1010.47
2016-08-20T05:33:01.234Z,1010.46
2016-08-20T05:33:26.787Z,1010.46
2016-08-20T05:33:52.353Z,1010.45
2016-08-20T05:34:18.027Z,1010.44
2016-08-20T05:34:43.576Z,1010.47
2016-08-20T05:35:09.138Z,1010.46
2016-08-20T05:35:34.692Z,1010.47
2016-08-20T05:36:00.257Z,1010.44
2016-08-20T05:36:25.973Z,1010.45
2016-08-20T05:36:51.544Z,1010.46
2016-08-20T05:37:17.313Z,1010.5
2016-08-20T05:37:42.905Z,1010.48
2016-08-20T05:38:08.459Z,1010.47
2016-08-20T05:38:34.032Z,1010.47
2016-08-20T05:38:59.584Z,1010.42
2016-08-20T05:39:25.153Z,1010.45
2016-08-20T05:39:50.740Z,1010.46
2016-08-20T05:40:16.339Z,1010.47
2016-08-20T05:40:41.897Z,1010.45
2016-08-20T05:41:07.554Z,1010.45
2016-08-20T05:41:33.182Z,1010.46
2016-08-20T05:41:58.750Z,1010.44
2016-08-20T05:42:24.330Z,1010.43
2016-08-20T05:42:49.906Z,1010.43
2016-08-20T05:43:15.478Z,1010.41
2016-08-20T05:43:41.081Z,1010.37
2016-08-20T05:44:06.624Z,1010.42
2016-08-20T05:44:32.178Z,1010.39
2016-08-20T05:44:57.739Z,1010.36
2016-08-20T05:45:23.292Z,1010.42
2016-08-20T05:45:48.932Z,1010.41
2016-08-20T05:46:14.504Z,1010.44
2016-08-20T05:46:40.090Z,1010.47
2016-08-20T05:47:05.674Z,1010.45
2016-08-20T05:47:31.265Z,1010.42
2016-08-20T05:47:56.830Z,1010.45
2016-08-20T05:48:22.654Z,1010.49
2016-08-20T05:48:48.277Z,1010.49
2016-08-20T05:49:13.845Z,1010.49
2016-08-20T05:49:39.421Z,1010.52
2016-08-20T05:50:05.008Z,1010.45
2016-08-20T05:50:30.571Z,1010.45
2016-08-20T05:50:56.188Z,1010.48
2016-08-20T05:51:21.760Z,1010.5
2016-08-20T05:51:47.333Z,1010.51
2016-08-20T05:52:13.106Z,1010.53
2016-08-20T05:52:38.663Z,1010.53
2016-08-20T05:53:04.229Z,1010.52
2016-08-20T05:53:29.799Z,1010.55
2016-08-20T05:53:55.477Z,1010.55
2016-08-20T05:54:21.121Z,1010.53
2016-08-20T05:54:46.711Z,1010.53
2016-08-20T05:55:12.401Z,1010.52
2016-08-20T05:55:37.988Z,1010.57
2016-08-20T05:56:03.585Z,1010.6
2016-08-20T05:56:29.178Z,1010.56
2016-08-20T05:56:54.742Z,1010.54
2016-08-20T05:57:20.306Z,1010.59
2016-08-20T05:57:45.877Z,1010.6
2016-08-20T05:58:11.449Z,1010.6
2016-08-20T05:58:37.021Z,1010.62
2016-08-20T05:59:02.709Z,1010.63
2016-08-20T05:59:28.322Z,1010.63
2016-08-20T05:59:53.900Z,1010.63
2016-08-20T06:00:19.473Z,1010.63
2016-08-20T06:01:38.081Z,1010.64
2016-08-20T06:02:03.634Z,1010.65
2016-08-20T06:02:29.219Z,1010.69
2016-08-20T06:02:54.851Z,1010.68
2016-08-20T06:03:20.485Z,1010.67
2016-08-20T06:03:46.054Z,1010.69
2016-08-20T06:04:11.593Z,1010.7
2016-08-20T06:04:37.178Z,1010.75
2016-08-20T06:05:02.813Z,1010.72
2016-08-20T06:05:28.444Z,1010.75
2016-08-20T06:05:54.006Z,1010.77
2016-08-20T06:06:19.621Z,1010.75
2016-08-20T06:06:45.191Z,1010.75
2016-08-20T06:07:10.759Z,1010.78
2016-08-20T06:07:36.449Z,1010.78
2016-08-20T06:08:01.983Z,1010.84
2016-08-20T06:08:27.546Z,1010.79
2016-08-20T06:08:53.134Z,1010.85
2016-08-20T06:09:18.707Z,1010.86
2016-08-20T06:09:44.280Z,1010.84
2016-08-20T06:10:09.841Z,1010.87
2016-08-20T06:10:35.599Z,1010.8
2016-08-20T06:11:01.169Z,1010.88
2016-08-20T06:11:26.782Z,1010.84
2016-08-20T06:11:52.487Z,1010.83
2016-08-20T06:12:18.091Z,1010.88
2016-08-20T06:12:43.625Z,1010.82
2016-08-20T06:13:09.193Z,1010.83
2016-08-20T06:13:34.779Z,1010.83
2016-08-20T06:14:00.326Z,1010.85
2016-08-20T06:14:25.882Z,1010.82
2016-08-20T06:14:51.456Z,1010.8
2016-08-20T06:15:17.054Z,1010.83
2016-08-20T06:15:42.636Z,1010.84
2016-08-20T06:16:08.190Z,1010.82
2016-08-20T06:16:33.844Z,1010.86
2016-08-20T06:16:59.464Z,1010.85
2016-08-20T06:17:25.146Z,1010.87
2016-08-20T06:17:50.713Z,1010.85
2016-08-20T06:18:16.283Z,1010.84
2016-08-20T06:18:41.873Z,1010.84
2016-08-20T06:19:07.454Z,1010.88
2016-08-20T06:19:33.009Z,1010.88
2016-08-20T06:19:58.580Z,1010.85
2016-08-20T06:20:24.149Z,1010.85
2016-08-20T06:20:49.686Z,1010.87
2016-08-20T06:21:15.243Z,1010.88
2016-08-20T06:21:40.843Z,1010.87
2016-08-20T06:22:06.394Z,1010.86
2016-08-20T06:22:31.962Z,1010.89
2016-08-20T06:22:57.523Z,1010.86
2016-08-20T06:23:23.114Z,1010.89
2016-08-20T06:23:48.681Z,1010.89
2016-08-20T06:24:14.239Z,1010.88
2016-08-20T06:24:39.796Z,1010.88
2016-08-20T06:25:05.376Z,1010.87
2016-08-20T06:25:31.069Z,1010.88
2016-08-20T06:25:56.655Z,1010.89
2016-08-20T06:26:22.203Z,1010.84
2016-08-20T06:26:47.752Z,1010.85
2016-08-20T06:27:13.319Z,1010.85
2016-08-20T06:27:38.869Z,1010.83
2016-08-20T06:28:04.456Z,1010.86
2016-08-20T06:28:30.089Z,1010.86
2016-08-20T06:28:55.624Z,1010.87
2016-08-20T06:29:21.186Z,1010.84
2016-08-20T06:29:46.750Z,1010.8
2016-08-20T06:30:12.327Z,1010.83
2016-08-20T06:30:37.971Z,1010.85
2016-08-20T06:31:03.520Z,1010.82
2016-08-20T06:31:29.066Z,1010.83
2016-08-20T06:31:54.654Z,1010.8
2016-08-20T06:32:20.228Z,1010.83
2016-08-20T06:32:45.820Z,1010.77
2016-08-20T06:33:11.365Z,1010.81
2016-08-20T06:33:36.908Z,1010.77
2016-08-20T06:34:02.553Z,1010.76
2016-08-20T06:34:28.196Z,1010.78
2016-08-20T06:34:53.740Z,1010.81
2016-08-20T06:35:19.311Z,1010.8
2016-08-20T06:35:44.861Z,1010.79
2016-08-20T06:36:10.434Z,1010.79
2016-08-20T06:36:35.997Z,1010.78
2016-08-20T06:37:01.621Z,1010.76
2016-08-20T06:37:27.278Z,1010.78
2016-08-20T06:37:52.839Z,1010.82
2016-08-20T06:38:18.467Z,1010.81
2016-08-20T06:38:44.056Z,1010.83
2016-08-20T06:39:09.688Z,1010.79
2016-08-20T06:39:35.268Z,1010.86
2016-08-20T06:40:00.864Z,1010.85
2016-08-20T06:40:26.424Z,1010.8
2016-08-20T06:40:52.005Z,1010.83
2016-08-20T06:41:17.675Z,1010.84
2016-08-20T06:41:43.361Z,1010.87
2016-08-20T06:42:08.930Z,1010.85
2016-08-20T06:42:34.533Z,1010.88
2016-08-20T06:43:00.204Z,1010.89
2016-08-20T06:43:25.763Z,1010.87
2016-08-20T06:43:51.314Z,1010.85
2016-08-20T06:44:16.859Z,1010.9
2016-08-20T06:44:42.423Z,1010.86
2016-08-20T06:45:08.017Z,1010.86
2016-08-20T06:45:33.582Z,1010.87
2016-08-20T06:45:59.149Z,1010.92
2016-08-20T06:46:24.753Z,1010.87
2016-08-20T06:46:50.297Z,1010.88
2016-08-20T06:47:15.852Z,1010.88
2016-08-20T06:47:41.417Z,1010.93
2016-08-20T06:48:07.109Z,1010.88
2016-08-20T06:48:32.684Z,1010.91
2016-08-20T06:48:58.249Z,1010.9
2016-08-20T06:49:23.953Z,1010.94
2016-08-20T06:49:49.510Z,1010.96
2016-08-20T06:50:15.087Z,1010.91
2016-08-20T06:50:40.739Z,1010.96
2016-08-20T06:51:06.308Z,1010.93
2016-08-20T06:51:31.848Z,1010.92
2016-08-20T06:51:57.502Z,1010.95
2016-08-20T06:52:23.131Z,1010.91
2016-08-20T06:52:48.709Z,1010.92
2016-08-20T06:53:14.295Z,1010.94
2016-08-20T06:53:39.863Z,1010.94
2016-08-20T06:54:05.424Z,1010.94
2016-08-20T06:54:30.986Z,1010.91
2016-08-20T06:54:56.573Z,1010.94
2016-08-20T06:55:22.153Z,1010.92
2016-08-20T06:55:47.732Z,1010.92
2016-08-20T06:56:13.297Z,1010.87
2016-08-20T06:56:38.858Z,1010.89
2016-08-20T06:57:04.516Z,1010.9
2016-08-20T06:57:30.093Z,1010.9
2016-08-20T06:57:55.654Z,1010.93
2016-08-20T06:58:21.349Z,1010.9
2016-08-20T06:58:46.907Z,1010.89
2016-08-20T06:59:12.504Z,1010.88
2016-08-20T06:59:38.056Z,1010.91
2016-08-20T07:00:03.624Z,1010.92
2016-08-20T07:00:29.320Z,1010.88
2016-08-20T07:00:54.889Z,1010.88
2016-08-20T07:02:03.215Z,1010.93
2016-08-20T07:02:28.855Z,1010.91
2016-08-20T07:02:54.414Z,1010.9
2016-08-20T07:03:19.970Z,1010.88
2016-08-20T07:03:45.527Z,1010.91
2016-08-20T07:04:11.209Z,1010.91
2016-08-20T07:04:36.879Z,1010.9
2016-08-20T07:05:02.548Z,1010.85
2016-08-20T07:05:28.158Z,1010.89
2016-08-20T07:05:53.715Z,1010.89
2016-08-20T07:06:19.389Z,1010.87
2016-08-20T07:06:44.945Z,1010.92
2016-08-20T07:07:10.505Z,1010.91
2016-08-20T07:07:36.047Z,1010.94
2016-08-20T07:08:01.631Z,1010.89
2016-08-20T07:08:27.180Z,1010.91
2016-08-20T07:08:52.749Z,1010.9
2016-08-20T07:09:18.294Z,1010.9
2016-08-20T07:09:43.930Z,1010.93
2016-08-20T07:10:09.551Z,1010.92
2016-08-20T07:10:35.118Z,1010.96
2016-08-20T07:11:00.690Z,1010.96
2016-08-20T07:11:26.373Z,1010.97
2016-08-20T07:11:51.923Z,1011
2016-08-20T07:12:17.496Z,1010.95
2016-08-20T07:12:43.079Z,1010.98
2016-08-20T07:13:08.656Z,1011.01
2016-08-20T07:13:34.252Z,1011.01
2016-08-20T07:13:59.810Z,1010.98
2016-08-20T07:14:25.381Z,1010.97
2016-08-20T07:14:50.932Z,1011
2016-08-20T07:15:16.580Z,1011.02
2016-08-20T07:15:42.142Z,1011.05
2016-08-20T07:16:07.895Z,1011.02
2016-08-20T07:16:33.486Z,1010.99
2016-08-20T07:16:59.083Z,1010.99
2016-08-20T07:17:24.635Z,1011
2016-08-20T07:17:50.264Z,1011
2016-08-20T07:18:15.820Z,1010.99
2016-08-20T07:18:41.402Z,1010.99
2016-08-20T07:19:07.065Z,1010.99
2016-08-20T07:19:32.634Z,1011.01
2016-08-20T07:19:58.222Z,1011.01
2016-08-20T07:20:24.033Z,1010.98
2016-08-20T07:20:49.652Z,1010.93
2016-08-20T07:21:15.346Z,1010.96
2016-08-20T07:21:40.954Z,1010.94
2016-08-20T07:22:06.730Z,1010.96
2016-08-20T07:22:32.302Z,1010.98
2016-08-20T07:22:57.880Z,1010.97
2016-08-20T07:23:23.534Z,1010.94
2016-08-20T07:23:49.212Z,1010.96
2016-08-20T07:24:14.904Z,1010.97
2016-08-20T07:24:40.453Z,1010.97
2016-08-20T07:25:06.022Z,1011
2016-08-20T07:25:31.618Z,1011.01
2016-08-20T07:25:57.213Z,1011.01
2016-08-20T07:26:22.761Z,1011.01
2016-08-20T07:26:48.340Z,1011.04
2016-08-20T07:27:13.941Z,1011.03
2016-08-20T07:27:39.512Z,1011.03
2016-08-20T07:28:05.155Z,1011.02
2016-08-20T07:29:03.258Z,1011.07
2016-08-20T07:30:01.319Z,1011.07
2016-08-20T07:30:27.080Z,1011.05
2016-08-20T07:30:52.643Z,1011.09
2016-08-20T07:31:18.319Z,1011.07
2016-08-20T07:31:43.877Z,1011.06
2016-08-20T07:32:09.456Z,1011.1
2016-08-20T07:32:35.113Z,1011.09
2016-08-20T07:33:00.674Z,1011.1
2016-08-20T07:33:26.321Z,1011.07
2016-08-20T07:33:51.893Z,1011.08
2016-08-20T07:34:17.448Z,1011.07
2016-08-20T07:34:43.002Z,1011.07
2016-08-20T07:35:08.552Z,1011.12
2016-08-20T07:35:34.121Z,1011.09
2016-08-20T07:35:59.693Z,1011.06
2016-08-20T07:36:25.239Z,1011.08
2016-08-20T07:36:50.828Z,1011.1
2016-08-20T07:37:16.385Z,1011.11
2016-08-20T07:37:42.093Z,1011.15
2016-08-20T07:38:07.646Z,1011.14
2016-08-20T07:38:33.239Z,1011.09
2016-08-20T07:38:58.834Z,1011.12
2016-08-20T07:40:17.424Z,1011.12
2016-08-20T07:40:42.993Z,1011.14
2016-08-20T07:41:08.563Z,1011.14
2016-08-20T07:41:34.188Z,1011.14
2016-08-20T07:41:59.763Z,1011.14
2016-08-20T07:42:25.356Z,1011.1
2016-08-20T07:42:50.955Z,1011.13
2016-08-20T07:43:16.592Z,1011.18
2016-08-20T07:43:42.189Z,1011.16
2016-08-20T07:44:07.758Z,1011.14
2016-08-20T07:44:33.313Z,1011.24
2016-08-20T07:44:58.875Z,1011.2
2016-08-20T07:45:24.443Z,1011.16
2016-08-20T07:45:50.004Z,1011.19
2016-08-20T07:46:15.575Z,1011.17
2016-08-20T07:46:41.546Z,1011.16
2016-08-20T07:47:07.155Z,1011.17
2016-08-20T07:47:32.813Z,1011.14
2016-08-20T07:47:58.384Z,1011.18
2016-08-20T07:48:24.012Z,1011.21
2016-08-20T07:48:49.562Z,1011.18
2016-08-20T07:49:15.181Z,1011.17
2016-08-20T07:49:40.759Z,1011.18
2016-08-20T07:50:06.353Z,1011.24
2016-08-20T07:50:31.929Z,1011.27
2016-08-20T07:50:57.481Z,1011.22
2016-08-20T07:51:23.044Z,1011.21
2016-08-20T07:51:48.686Z,1011.2
2016-08-20T07:52:14.229Z,1011.2
2016-08-20T07:52:39.822Z,1011.24
2016-08-20T07:53:05.454Z,1011.19
2016-08-20T07:53:31.014Z,1011.18
2016-08-20T07:53:56.580Z,1011.14
2016-08-20T07:54:22.214Z,1011.17
2016-08-20T07:54:47.803Z,1011.21
2016-08-20T07:55:13.395Z,1011.14
2016-08-20T07:55:38.981Z,1011.2
2016-08-20T07:56:04.555Z,1011.2
2016-08-20T07:56:30.135Z,1011.15
2016-08-20T07:56:55.702Z,1011.18
2016-08-20T07:57:21.297Z,1011.16
2016-08-20T07:57:46.877Z,1011.2
2016-08-20T07:58:12.646Z,1011.17
2016-08-20T07:58:38.199Z,1011.16
2016-08-20T07:59:03.764Z,1011.19
2016-08-20T07:59:29.450Z,1011.22
2016-08-20T07:59:54.994Z,1011.21
2016-08-20T08:00:20.576Z,1011.17
2016-08-20T08:00:46.166Z,1011.18
2016-08-20T08:01:11.780Z,1011.2
2016-08-20T08:01:37.364Z,1011.22
2016-08-20T08:02:02.927Z,1011.22
2016-08-20T08:02:28.624Z,1011.21
2016-08-20T08:02:54.258Z,1011.24
2016-08-20T08:03:20.591Z,1011.22
2016-08-20T08:03:46.202Z,1011.25
2016-08-20T08:04:11.816Z,1011.21
2016-08-20T08:04:37.478Z,1011.23
2016-08-20T08:05:03.501Z,1011.26
2016-08-20T08:05:29.052Z,1011.24
2016-08-20T08:05:54.647Z,1011.25
2016-08-20T08:06:20.200Z,1011.27
2016-08-20T08:06:45.840Z,1011.28
2016-08-20T08:07:11.440Z,1011.24
2016-08-20T08:07:37.015Z,1011.21
2016-08-20T08:08:02.574Z,1011.23
2016-08-20T08:08:28.300Z,1011.27
2016-08-20T08:08:53.860Z,1011.29
2016-08-20T08:09:19.513Z,1011.29
2016-08-20T08:09:45.073Z,1011.27
2016-08-20T08:10:10.637Z,1011.3
2016-08-20T08:10:36.216Z,1011.3
2016-08-20T08:11:01.861Z,1011.32
2016-08-20T08:11:27.467Z,1011.33
2016-08-20T08:11:53.020Z,1011.29
2016-08-20T08:12:18.690Z,1011.27
2016-08-20T08:12:44.310Z,1011.29
2016-08-20T08:13:09.906Z,1011.26
2016-08-20T08:13:35.475Z,1011.26
2016-08-20T08:14:01.105Z,1011.33
2016-08-20T08:14:26.706Z,1011.29
2016-08-20T08:14:52.277Z,1011.28
2016-08-20T08:15:17.835Z,1011.29
2016-08-20T08:15:43.408Z,1011.33
2016-08-20T08:16:08.954Z,1011.31
2016-08-20T08:16:34.525Z,1011.34
2016-08-20T08:17:00.093Z,1011.29
2016-08-20T08:17:25.697Z,1011.29
2016-08-20T08:17:51.263Z,1011.35
2016-08-20T08:18:16.823Z,1011.34
2016-08-20T08:18:42.463Z,1011.36
2016-08-20T08:19:08.029Z,1011.29
2016-08-20T08:19:33.630Z,1011.33
2016-08-20T08:19:59.203Z,1011.35
2016-08-20T08:20:24.756Z,1011.36
2016-08-20T08:20:50.326Z,1011.37
2016-08-20T08:21:15.966Z,1011.38
2016-08-20T08:21:41.511Z,1011.38
2016-08-20T08:22:07.080Z,1011.38
2016-08-20T08:22:32.649Z,1011.35
2016-08-20T08:22:58.280Z,1011.38
2016-08-20T08:23:23.850Z,1011.35
2016-08-20T08:23:49.397Z,1011.41
2016-08-20T08:24:14.992Z,1011.41
2016-08-20T08:24:40.554Z,1011.39
2016-08-20T08:25:06.145Z,1011.44
2016-08-20T08:25:31.846Z,1011.43
2016-08-20T08:25:57.404Z,1011.4
2016-08-20T08:26:22.958Z,1011.44
2016-08-20T08:26:48.559Z,1011.38
2016-08-20T08:27:14.280Z,1011.4
2016-08-20T08:27:39.859Z,1011.39
2016-08-20T08:28:05.419Z,1011.42
2016-08-20T08:28:31.032Z,1011.46
2016-08-20T08:28:56.606Z,1011.44
2016-08-20T08:29:22.167Z,1011.48
2016-08-20T08:29:47.708Z,1011.41
2016-08-20T08:30:13.254Z,1011.44
2016-08-20T08:30:38.800Z,1011.43
2016-08-20T08:31:04.338Z,1011.44
2016-08-20T08:31:29.898Z,1011.41
2016-08-20T08:31:55.438Z,1011.47
2016-08-20T08:32:21.026Z,1011.45
2016-08-20T08:32:46.613Z,1011.46
2016-08-20T08:33:12.187Z,1011.49
2016-08-20T08:33:37.767Z,1011.47
2016-08-20T08:34:03.316Z,1011.44
2016-08-20T08:34:28.881Z,1011.48
2016-08-20T08:34:54.395Z,1011.49
2016-08-20T08:35:19.948Z,1011.46
2016-08-20T08:35:45.534Z,1011.48
2016-08-20T08:36:11.100Z,1011.47
2016-08-20T08:36:36.729Z,1011.45
2016-08-20T08:37:55.362Z,1011.45
2016-08-20T08:38:20.949Z,1011.46
2016-08-20T08:38:46.523Z,1011.47
2016-08-20T08:39:12.190Z,1011.47
2016-08-20T08:39:37.765Z,1011.47
2016-08-20T08:40:03.339Z,1011.52
2016-08-20T08:40:29.082Z,1011.51
2016-08-20T08:40:54.655Z,1011.51
2016-08-20T08:41:20.346Z,1011.48
2016-08-20T08:41:45.905Z,1011.48
2016-08-20T08:42:11.472Z,1011.52
2016-08-20T08:42:37.188Z,1011.49
2016-08-20T08:43:02.762Z,1011.47
2016-08-20T08:43:28.338Z,1011.52
2016-08-20T08:43:53.899Z,1011.5
2016-08-20T08:44:19.449Z,1011.51
2016-08-20T08:44:45.003Z,1011.49
2016-08-20T08:45:58.387Z,1011.53
2016-08-20T08:46:23.955Z,1011.52
2016-08-20T08:46:49.523Z,1011.52
2016-08-20T08:47:15.113Z,1011.54
2016-08-20T08:47:40.673Z,1011.6
2016-08-20T08:48:06.235Z,1011.55
2016-08-20T08:48:31.930Z,1011.58
2016-08-20T08:48:57.518Z,1011.61
2016-08-20T08:50:00.684Z,1011.59
2016-08-20T08:50:26.305Z,1011.58
2016-08-20T08:50:51.869Z,1011.57
2016-08-20T08:51:17.432Z,1011.58
2016-08-20T08:51:43.010Z,1011.59
2016-08-20T08:52:08.581Z,1011.65
2016-08-20T08:52:34.199Z,1011.61
2016-08-20T08:52:59.768Z,1011.58
2016-08-20T08:53:25.372Z,1011.59
2016-08-20T08:54:28.663Z,1011.6
2016-08-20T08:54:54.226Z,1011.63
2016-08-20T08:55:19.801Z,1011.62
2016-08-20T08:55:45.448Z,1011.66
2016-08-20T08:56:11.040Z,1011.63
2016-08-20T08:56:36.597Z,1011.67
2016-08-20T08:57:02.174Z,1011.66
2016-08-20T08:57:27.804Z,1011.67
2016-08-20T08:57:53.372Z,1011.67
2016-08-20T08:58:19.070Z,1011.65
2016-08-20T08:58:44.639Z,1011.69
2016-08-20T08:59:10.207Z,1011.69
2016-08-20T08:59:35.773Z,1011.61
2016-08-20T09:00:01.361Z,1011.65
2016-08-20T09:00:26.984Z,1011.65
2016-08-20T09:00:52.677Z,1011.66
2016-08-20T09:02:06.053Z,1011.65
2016-08-20T09:02:31.665Z,1011.68
2016-08-20T09:02:57.220Z,1011.66
2016-08-20T09:03:22.791Z,1011.67
2016-08-20T09:03:48.371Z,1011.68
2016-08-20T09:04:13.981Z,1011.69
2016-08-20T09:04:39.570Z,1011.61
2016-08-20T09:05:05.136Z,1011.62
2016-08-20T09:05:30.705Z,1011.68
2016-08-20T09:05:56.380Z,1011.67
2016-08-20T09:06:21.958Z,1011.75
2016-08-20T09:06:47.526Z,1011.64
2016-08-20T09:07:13.127Z,1011.61
2016-08-20T09:07:38.772Z,1011.63
2016-08-20T09:08:04.406Z,1011.67
2016-08-20T09:08:30.016Z,1011.66
2016-08-20T09:08:55.581Z,1011.71
2016-08-20T09:09:21.170Z,1011.72
2016-08-20T09:09:46.767Z,1011.67
2016-08-20T09:10:12.346Z,1011.68
2016-08-20T09:10:37.910Z,1011.7
2016-08-20T09:11:03.556Z,1011.68
2016-08-20T09:11:29.121Z,1011.72
2016-08-20T09:11:54.705Z,1011.7
2016-08-20T09:12:20.263Z,1011.67
2016-08-20T09:12:45.842Z,1011.68
2016-08-20T09:13:11.418Z,1011.68
2016-08-20T09:13:36.978Z,1011.75
2016-08-20T09:14:02.541Z,1011.68
2016-08-20T09:14:28.163Z,1011.65
2016-08-20T09:14:53.727Z,1011.74
2016-08-20T09:15:19.294Z,1011.76
2016-08-20T09:15:44.871Z,1011.77
2016-08-20T09:16:10.469Z,1011.7
2016-08-20T09:16:36.022Z,1011.68
2016-08-20T09:17:01.594Z,1011.73
2016-08-20T09:17:27.259Z,1011.74
2016-08-20T09:17:52.790Z,1011.81
2016-08-20T09:18:18.369Z,1011.69
2016-08-20T09:18:44.055Z,1011.76
2016-08-20T09:19:09.620Z,1011.77
2016-08-20T09:19:35.208Z,1011.79
2016-08-20T09:20:00.795Z,1011.75
2016-08-20T09:20:26.369Z,1011.76
2016-08-20T09:20:51.960Z,1011.79
2016-08-20T09:21:17.536Z,1011.75
2016-08-20T09:21:43.096Z,1011.76